Archival Weather

Yakutsk

Yakutsk, Russia (UEEE)

Report from: Tuesday, June 6, 2023 10:00 AM JST
Current time: Wednesday, May 29, 2024 4:40 PM JST

Current weather – Weather history – Daily summaries
Weather forecast

Temperature17.0°C (62.6°F)
Dew point4.0°C (39.2°F)
Winds 7.8 kts (4 m/s, 8.9 mph) West-Northwest (300°)
Clouds Sky clear
Altimeter29.53 in.Hg (1000 mB)
Precip. events QF 12:21 PM
Relative humidity42 %
Density altitude806 ft. (246 m)
Remarks Ceiling and visibility OK
No significant changes expected in the next two hours
Flight conditions Visual Meteorological Conditions
Raw dataUEEE 060100Z 30004MPS CAVOK 17/04 Q1000 R05/09//60 NOSIG RMK QFE741
An error has occurred. This application may no longer respond until reloaded. Reload 🗙